sensor_id;sensor_type;location;lat;lon;timestamp;temperature;humidity
7117;DHT22;3600;48.568;7.870;2023-07-13T00:00:47;20.50;99.70
7117;DHT22;3600;48.568;7.870;2023-07-13T00:03:14;20.80;99.90
7117;DHT22;3600;48.568;7.870;2023-07-13T00:05:41;20.80;99.90
7117;DHT22;3600;48.568;7.870;2023-07-13T00:08:08;20.90;99.90
7117;DHT22;3600;48.568;7.870;2023-07-13T00:10:42;21.00;99.90
7117;DHT22;3600;48.568;7.870;2023-07-13T00:13:09;21.20;99.90
7117;DHT22;3600;48.568;7.870;2023-07-13T00:15:36;20.80;99.90
7117;DHT22;3600;48.568;7.870;2023-07-13T00:18:03;20.70;99.90
7117;DHT22;3600;48.568;7.870;2023-07-13T00:20:30;20.60;99.90
7117;DHT22;3600;48.568;7.870;2023-07-13T00:22:57;20.60;99.90
7117;DHT22;3600;48.568;7.870;2023-07-13T00:25:24;20.20;99.90
7117;DHT22;3600;48.568;7.870;2023-07-13T00:27:52;20.10;99.90
7117;DHT22;3600;48.568;7.870;2023-07-13T00:30:19;20.00;99.90
7117;DHT22;3600;48.568;7.870;2023-07-13T00:32:46;20.20;99.90
7117;DHT22;3600;48.568;7.870;2023-07-13T00:35:14;20.00;99.90
7117;DHT22;3600;48.568;7.870;2023-07-13T00:37:42;20.20;99.90
7117;DHT22;3600;48.568;7.870;2023-07-13T00:40:11;20.20;99.90
7117;DHT22;3600;48.568;7.870;2023-07-13T00:42:39;20.00;99.90
7117;DHT22;3600;48.568;7.870;2023-07-13T00:47:40;19.50;99.90
7117;DHT22;3600;48.568;7.870;2023-07-13T00:50:10;19.60;99.90
7117;DHT22;3600;48.568;7.870;2023-07-13T00:52:42;19.40;99.90
7117;DHT22;3600;48.568;7.870;2023-07-13T00:55:11;19.30;99.90
7117;DHT22;3600;48.568;7.870;2023-07-13T00:57:39;19.00;99.90
7117;DHT22;3600;48.568;7.870;2023-07-13T01:00:07;19.20;99.90
7117;DHT22;3600;48.568;7.870;2023-07-13T01:02:38;19.30;99.90
7117;DHT22;3600;48.568;7.870;2023-07-13T01:05:24;18.90;99.90
7117;DHT22;3600;48.568;7.870;2023-07-13T01:07:52;18.80;99.90
7117;DHT22;3600;48.568;7.870;2023-07-13T01:10:24;18.80;99.90
7117;DHT22;3600;48.568;7.870;2023-07-13T01:12:52;19.10;99.90
7117;DHT22;3600;48.568;7.870;2023-07-13T01:15:44;19.30;99.90
7117;DHT22;3600;48.568;7.870;2023-07-13T01:21:03;19.10;99.90
7117;DHT22;3600;48.568;7.870;2023-07-13T01:23:31;19.10;99.90
7117;DHT22;3600;48.568;7.870;2023-07-13T01:26:00;19.30;99.90
7117;DHT22;3600;48.568;7.870;2023-07-13T01:28:28;19.40;99.90
7117;DHT22;3600;48.568;7.870;2023-07-13T01:30:58;19.10;99.90
7117;DHT22;3600;48.568;7.870;2023-07-13T01:33:26;19.10;99.90
7117;DHT22;3600;48.568;7.870;2023-07-13T01:35:54;19.20;99.90
7117;DHT22;3600;48.568;7.870;2023-07-13T01:38:24;19.30;99.90
7117;DHT22;3600;48.568;7.870;2023-07-13T01:40:52;19.00;99.90
7117;DHT22;3600;48.568;7.870;2023-07-13T01:43:20;19.10;99.90
7117;DHT22;3600;48.568;7.870;2023-07-13T01:45:48;18.90;99.90
7117;DHT22;3600;48.568;7.870;2023-07-13T01:48:15;18.70;99.90
7117;DHT22;3600;48.568;7.870;2023-07-13T01:50:43;18.80;99.90
7117;DHT22;3600;48.568;7.870;2023-07-13T01:53:10;18.70;99.90
7117;DHT22;3600;48.568;7.870;2023-07-13T01:55:37;18.70;99.90
7117;DHT22;3600;48.568;7.870;2023-07-13T01:58:05;18.40;99.90
7117;DHT22;3600;48.568;7.870;2023-07-13T02:00:33;18.70;99.90
7117;DHT22;3600;48.568;7.870;2023-07-13T02:03:00;18.70;99.90
7117;DHT22;3600;48.568;7.870;2023-07-13T02:05:28;18.60;99.90
7117;DHT22;3600;48.568;7.870;2023-07-13T02:07:55;18.40;99.90
7117;DHT22;3600;48.568;7.870;2023-07-13T02:10:22;18.40;99.90
7117;DHT22;3600;48.568;7.870;2023-07-13T02:12:50;18.80;99.90
7117;DHT22;3600;48.568;7.870;2023-07-13T02:15:18;18.60;99.90
7117;DHT22;3600;48.568;7.870;2023-07-13T02:17:46;18.00;99.90
7117;DHT22;3600;48.568;7.870;2023-07-13T02:20:16;18.10;99.90
7117;DHT22;3600;48.568;7.870;2023-07-13T02:22:44;18.10;99.90
7117;DHT22;3600;48.568;7.870;2023-07-13T02:25:11;18.20;99.90
7117;DHT22;3600;48.568;7.870;2023-07-13T02:27:44;18.30;99.90
7117;DHT22;3600;48.568;7.870;2023-07-13T02:30:13;18.50;99.90
7117;DHT22;3600;48.568;7.870;2023-07-13T02:32:41;18.80;99.90
7117;DHT22;3600;48.568;7.870;2023-07-13T02:35:15;18.70;99.90
7117;DHT22;3600;48.568;7.870;2023-07-13T02:37:43;18.40;99.90
7117;DHT22;3600;48.568;7.870;2023-07-13T02:40:10;18.40;99.90
7117;DHT22;3600;48.568;7.870;2023-07-13T02:42:39;18.50;99.90
7117;DHT22;3600;48.568;7.870;2023-07-13T02:45:08;18.50;99.90
7117;DHT22;3600;48.568;7.870;2023-07-13T02:47:36;18.40;99.90
7117;DHT22;3600;48.568;7.870;2023-07-13T02:50:06;18.10;99.90
7117;DHT22;3600;48.568;7.870;2023-07-13T02:52:34;18.20;99.90
7117;DHT22;3600;48.568;7.870;2023-07-13T02:55:02;18.30;99.90
7117;DHT22;3600;48.568;7.870;2023-07-13T02:57:30;18.20;99.90
7117;DHT22;3600;48.568;7.870;2023-07-13T03:00:00;18.00;99.90
7117;DHT22;3600;48.568;7.870;2023-07-13T03:02:28;17.90;99.90
7117;DHT22;3600;48.568;7.870;2023-07-13T03:04:55;18.00;99.90
7117;DHT22;3600;48.568;7.870;2023-07-13T03:07:23;17.80;99.90
7117;DHT22;3600;48.568;7.870;2023-07-13T03:09:56;17.50;99.90
7117;DHT22;3600;48.568;7.870;2023-07-13T03:12:24;17.60;99.90
7117;DHT22;3600;48.568;7.870;2023-07-13T03:14:52;17.50;99.90
7117;DHT22;3600;48.568;7.870;2023-07-13T03:17:19;17.60;99.90
7117;DHT22;3600;48.568;7.870;2023-07-13T03:19:47;17.80;99.90
7117;DHT22;3600;48.568;7.870;2023-07-13T03:22:17;17.50;99.90
7117;DHT22;3600;48.568;7.870;2023-07-13T03:24:45;17.50;99.90
7117;DHT22;3600;48.568;7.870;2023-07-13T03:27:12;17.40;99.90
7117;DHT22;3600;48.568;7.870;2023-07-13T03:29:40;17.50;99.90
7117;DHT22;3600;48.568;7.870;2023-07-13T03:32:07;17.60;99.90
7117;DHT22;3600;48.568;7.870;2023-07-13T03:34:34;17.50;99.90
7117;DHT22;3600;48.568;7.870;2023-07-13T03:37:02;17.40;99.90
7117;DHT22;3600;48.568;7.870;2023-07-13T03:39:29;17.30;99.90
7117;DHT22;3600;48.568;7.870;2023-07-13T03:41:59;17.50;99.90
7117;DHT22;3600;48.568;7.870;2023-07-13T03:44:26;17.30;99.90
7117;DHT22;3600;48.568;7.870;2023-07-13T03:46:53;17.30;99.90
7117;DHT22;3600;48.568;7.870;2023-07-13T03:49:21;17.20;99.90
7117;DHT22;3600;48.568;7.870;2023-07-13T03:51:48;17.40;99.90
7117;DHT22;3600;48.568;7.870;2023-07-13T03:54:20;17.50;99.90
7117;DHT22;3600;48.568;7.870;2023-07-13T03:56:47;17.40;99.90
7117;DHT22;3600;48.568;7.870;2023-07-13T03:59:15;17.40;99.90
7117;DHT22;3600;48.568;7.870;2023-07-13T04:01:43;17.10;99.90
7117;DHT22;3600;48.568;7.870;2023-07-13T04:04:11;17.00;99.90
7117;DHT22;3600;48.568;7.870;2023-07-13T04:06:38;17.10;99.90
7117;DHT22;3600;48.568;7.870;2023-07-13T04:09:05;17.10;99.90
7117;DHT22;3600;48.568;7.870;2023-07-13T04:11:33;17.40;99.90
7117;DHT22;3600;48.568;7.870;2023-07-13T04:14:03;17.70;99.90
7117;DHT22;3600;48.568;7.870;2023-07-13T04:16:31;17.30;99.90
7117;DHT22;3600;48.568;7.870;2023-07-13T04:19:01;17.10;99.90
7117;DHT22;3600;48.568;7.870;2023-07-13T04:21:31;17.10;99.90
7117;DHT22;3600;48.568;7.870;2023-07-13T04:23:59;17.30;99.90
7117;DHT22;3600;48.568;7.870;2023-07-13T04:26:26;17.10;99.90
7117;DHT22;3600;48.568;7.870;2023-07-13T04:28:53;16.90;99.90
7117;DHT22;3600;48.568;7.870;2023-07-13T04:31:20;17.00;99.90
7117;DHT22;3600;48.568;7.870;2023-07-13T04:33:48;17.10;99.90
7117;DHT22;3600;48.568;7.870;2023-07-13T04:36:16;17.40;99.90
7117;DHT22;3600;48.568;7.870;2023-07-13T04:38:43;17.40;99.90
7117;DHT22;3600;48.568;7.870;2023-07-13T04:41:12;17.20;99.90
7117;DHT22;3600;48.568;7.870;2023-07-13T04:43:39;17.20;99.90
7117;DHT22;3600;48.568;7.870;2023-07-13T04:46:08;17.50;99.90
7117;DHT22;3600;48.568;7.870;2023-07-13T04:48:36;17.80;99.90
7117;DHT22;3600;48.568;7.870;2023-07-13T04:51:03;17.70;99.90
7117;DHT22;3600;48.568;7.870;2023-07-13T04:53:31;17.90;99.90
7117;DHT22;3600;48.568;7.870;2023-07-13T04:55:59;18.10;99.90
7117;DHT22;3600;48.568;7.870;2023-07-13T04:58:27;18.30;99.90
7117;DHT22;3600;48.568;7.870;2023-07-13T05:01:01;18.50;99.90
7117;DHT22;3600;48.568;7.870;2023-07-13T05:03:29;18.30;99.90
7117;DHT22;3600;48.568;7.870;2023-07-13T05:05:59;18.30;99.90
7117;DHT22;3600;48.568;7.870;2023-07-13T05:08:27;18.20;99.90
7117;DHT22;3600;48.568;7.870;2023-07-13T05:10:54;18.40;99.90
7117;DHT22;3600;48.568;7.870;2023-07-13T05:13:22;18.40;99.90
7117;DHT22;3600;48.568;7.870;2023-07-13T05:16:02;18.50;99.90
7117;DHT22;3600;48.568;7.870;2023-07-13T05:18:30;18.20;99.90
7117;DHT22;3600;48.568;7.870;2023-07-13T05:21:03;17.80;99.90
7117;DHT22;3600;48.568;7.870;2023-07-13T05:23:31;17.80;99.90
7117;DHT22;3600;48.568;7.870;2023-07-13T05:25:59;17.80;99.90
7117;DHT22;3600;48.568;7.870;2023-07-13T05:28:27;17.90;99.90
7117;DHT22;3600;48.568;7.870;2023-07-13T05:30:55;18.20;99.90
7117;DHT22;3600;48.568;7.870;2023-07-13T05:33:23;18.50;99.90
7117;DHT22;3600;48.568;7.870;2023-07-13T05:35:50;18.60;99.90
7117;DHT22;3600;48.568;7.870;2023-07-13T05:38:17;18.80;99.90
7117;DHT22;3600;48.568;7.870;2023-07-13T05:40:45;18.90;99.90
7117;DHT22;3600;48.568;7.870;2023-07-13T05:43:13;18.90;99.90
7117;DHT22;3600;48.568;7.870;2023-07-13T05:45:41;19.00;99.90
7117;DHT22;3600;48.568;7.870;2023-07-13T05:48:08;19.00;99.90
7117;DHT22;3600;48.568;7.870;2023-07-13T05:50:35;19.00;99.90
7117;DHT22;3600;48.568;7.870;2023-07-13T05:53:02;19.00;99.90
7117;DHT22;3600;48.568;7.870;2023-07-13T05:55:29;19.10;99.90
7117;DHT22;3600;48.568;7.870;2023-07-13T05:57:56;19.20;99.90
7117;DHT22;3600;48.568;7.870;2023-07-13T06:00:25;19.30;99.90
7117;DHT22;3600;48.568;7.870;2023-07-13T06:02:52;19.20;99.90
7117;DHT22;3600;48.568;7.870;2023-07-13T06:05:19;19.30;99.90
7117;DHT22;3600;48.568;7.870;2023-07-13T06:07:46;19.30;99.90
7117;DHT22;3600;48.568;7.870;2023-07-13T06:10:13;19.00;99.90
7117;DHT22;3600;48.568;7.870;2023-07-13T06:12:39;19.00;99.90
7117;DHT22;3600;48.568;7.870;2023-07-13T06:15:07;19.00;99.90
7117;DHT22;3600;48.568;7.870;2023-07-13T06:17:34;19.20;99.90
7117;DHT22;3600;48.568;7.870;2023-07-13T06:20:04;19.20;99.90
7117;DHT22;3600;48.568;7.870;2023-07-13T06:22:31;19.20;99.90
7117;DHT22;3600;48.568;7.870;2023-07-13T06:24:58;19.30;99.90
7117;DHT22;3600;48.568;7.870;2023-07-13T06:27:25;19.30;99.90
7117;DHT22;3600;48.568;7.870;2023-07-13T06:29:55;19.30;99.90
7117;DHT22;3600;48.568;7.870;2023-07-13T06:32:22;19.30;99.90
7117;DHT22;3600;48.568;7.870;2023-07-13T06:34:50;19.30;99.90
7117;DHT22;3600;48.568;7.870;2023-07-13T06:37:19;19.30;99.90
7117;DHT22;3600;48.568;7.870;2023-07-13T06:39:46;19.40;99.90
7117;DHT22;3600;48.568;7.870;2023-07-13T06:42:13;19.40;99.90
7117;DHT22;3600;48.568;7.870;2023-07-13T06:44:41;19.40;99.90
7117;DHT22;3600;48.568;7.870;2023-07-13T06:47:08;19.40;99.90
7117;DHT22;3600;48.568;7.870;2023-07-13T06:49:35;19.40;99.90
7117;DHT22;3600;48.568;7.870;2023-07-13T06:52:02;19.50;99.90
7117;DHT22;3600;48.568;7.870;2023-07-13T06:54:29;19.50;99.90
7117;DHT22;3600;48.568;7.870;2023-07-13T06:56:56;19.60;99.90
7117;DHT22;3600;48.568;7.870;2023-07-13T06:59:23;19.60;99.90
7117;DHT22;3600;48.568;7.870;2023-07-13T07:01:50;19.60;99.90
7117;DHT22;3600;48.568;7.870;2023-07-13T07:04:16;19.60;99.90
7117;DHT22;3600;48.568;7.870;2023-07-13T07:06:44;19.70;99.90
7117;DHT22;3600;48.568;7.870;2023-07-13T07:09:11;19.80;99.90
7117;DHT22;3600;48.568;7.870;2023-07-13T07:11:38;19.80;99.90
7117;DHT22;3600;48.568;7.870;2023-07-13T07:14:25;20.10;99.90
7117;DHT22;3600;48.568;7.870;2023-07-13T07:16:52;20.30;99.90
7117;DHT22;3600;48.568;7.870;2023-07-13T07:19:19;20.40;99.90
7117;DHT22;3600;48.568;7.870;2023-07-13T07:21:46;20.20;99.90
7117;DHT22;3600;48.568;7.870;2023-07-13T07:24:13;20.10;99.90
7117;DHT22;3600;48.568;7.870;2023-07-13T07:26:40;20.10;99.90
7117;DHT22;3600;48.568;7.870;2023-07-13T07:29:10;20.10;99.90
7117;DHT22;3600;48.568;7.870;2023-07-13T07:31:40;20.10;99.90
7117;DHT22;3600;48.568;7.870;2023-07-13T07:34:10;20.20;99.90
7117;DHT22;3600;48.568;7.870;2023-07-13T07:36:37;20.50;99.90
7117;DHT22;3600;48.568;7.870;2023-07-13T07:39:07;20.50;99.90
7117;DHT22;3600;48.568;7.870;2023-07-13T07:41:34;20.50;99.90
7117;DHT22;3600;48.568;7.870;2023-07-13T07:44:06;20.50;99.90
7117;DHT22;3600;48.568;7.870;2023-07-13T07:46:34;20.60;99.90
7117;DHT22;3600;48.568;7.870;2023-07-13T07:49:06;20.60;99.90
7117;DHT22;3600;48.568;7.870;2023-07-13T07:51:33;20.70;99.90
7117;DHT22;3600;48.568;7.870;2023-07-13T07:54:01;20.70;99.90
7117;DHT22;3600;48.568;7.870;2023-07-13T07:56:28;20.90;99.90
7117;DHT22;3600;48.568;7.870;2023-07-13T07:58:58;20.90;99.90
7117;DHT22;3600;48.568;7.870;2023-07-13T08:01:28;21.10;99.90
7117;DHT22;3600;48.568;7.870;2023-07-13T08:03:58;21.30;99.90
7117;DHT22;3600;48.568;7.870;2023-07-13T08:06:28;21.30;99.90
7117;DHT22;3600;48.568;7.870;2023-07-13T08:09:11;21.20;99.90
7117;DHT22;3600;48.568;7.870;2023-07-13T08:11:37;21.20;99.90
7117;DHT22;3600;48.568;7.870;2023-07-13T08:14:10;21.40;99.90
7117;DHT22;3600;48.568;7.870;2023-07-13T08:16:36;21.50;99.90
7117;DHT22;3600;48.568;7.870;2023-07-13T08:19:03;21.50;99.90
7117;DHT22;3600;48.568;7.870;2023-07-13T08:21:30;21.70;99.90
7117;DHT22;3600;48.568;7.870;2023-07-13T08:23:57;21.80;99.90
7117;DHT22;3600;48.568;7.870;2023-07-13T08:26:24;21.70;99.90
7117;DHT22;3600;48.568;7.870;2023-07-13T08:28:54;21.60;99.90
7117;DHT22;3600;48.568;7.870;2023-07-13T08:31:24;21.60;99.90
7117;DHT22;3600;48.568;7.870;2023-07-13T08:33:52;21.60;99.90
7117;DHT22;3600;48.568;7.870;2023-07-13T08:36:19;21.80;99.90
7117;DHT22;3600;48.568;7.870;2023-07-13T08:38:46;21.90;99.90
7117;DHT22;3600;48.568;7.870;2023-07-13T08:41:16;22.00;99.90
7117;DHT22;3600;48.568;7.870;2023-07-13T08:43:47;21.90;99.90
7117;DHT22;3600;48.568;7.870;2023-07-13T08:46:37;22.10;99.90
7117;DHT22;3600;48.568;7.870;2023-07-13T08:49:10;22.30;99.90
7117;DHT22;3600;48.568;7.870;2023-07-13T08:51:46;22.20;99.80
7117;DHT22;3600;48.568;7.870;2023-07-13T08:54:38;22.20;99.90
7117;DHT22;3600;48.568;7.870;2023-07-13T08:57:21;22.50;98.30
7117;DHT22;3600;48.568;7.870;2023-07-13T08:59:51;22.50;99.00
7117;DHT22;3600;48.568;7.870;2023-07-13T09:05:29;22.90;99.30
7117;DHT22;3600;48.568;7.870;2023-07-13T09:08:27;23.10;99.40
7117;DHT22;3600;48.568;7.870;2023-07-13T09:11:34;23.00;98.70
7117;DHT22;3600;48.568;7.870;2023-07-13T09:16:49;23.40;97.20
7117;DHT22;3600;48.568;7.870;2023-07-13T09:19:26;23.50;98.40
7117;DHT22;3600;48.568;7.870;2023-07-13T09:21:56;23.20;96.70
7117;DHT22;3600;48.568;7.870;2023-07-13T09:24:44;23.50;98.50
7117;DHT22;3600;48.568;7.870;2023-07-13T09:27:18;23.90;96.90
7117;DHT22;3600;48.568;7.870;2023-07-13T09:29:50;24.10;97.60
7117;DHT22;3600;48.568;7.870;2023-07-13T09:32:23;24.00;95.00
7117;DHT22;3600;48.568;7.870;2023-07-13T09:34:52;24.10;96.60
7117;DHT22;3600;48.568;7.870;2023-07-13T09:37:22;24.10;96.40
7117;DHT22;3600;48.568;7.870;2023-07-13T09:39:58;23.60;93.60
7117;DHT22;3600;48.568;7.870;2023-07-13T09:42:26;23.50;95.80
7117;DHT22;3600;48.568;7.870;2023-07-13T09:44:58;23.80;95.40
7117;DHT22;3600;48.568;7.870;2023-07-13T09:47:27;24.00;94.10
7117;DHT22;3600;48.568;7.870;2023-07-13T09:50:04;24.10;94.50
7117;DHT22;3600;48.568;7.870;2023-07-13T09:52:44;24.40;96.20
7117;DHT22;3600;48.568;7.870;2023-07-13T09:57:57;24.50;93.70
7117;DHT22;3600;48.568;7.870;2023-07-13T10:00:28;24.50;94.50
7117;DHT22;3600;48.568;7.870;2023-07-13T10:03:20;24.20;93.10
7117;DHT22;3600;48.568;7.870;2023-07-13T10:05:51;24.60;94.80
7117;DHT22;3600;48.568;7.870;2023-07-13T10:08:26;24.20;93.40
7117;DHT22;3600;48.568;7.870;2023-07-13T10:11:01;23.70;94.60
7117;DHT22;3600;48.568;7.870;2023-07-13T10:13:34;23.60;94.40
7117;DHT22;3600;48.568;7.870;2023-07-13T10:16:07;23.60;94.10
7117;DHT22;3600;48.568;7.870;2023-07-13T10:18:49;23.60;94.80
7117;DHT22;3600;48.568;7.870;2023-07-13T10:21:20;23.60;95.30
7117;DHT22;3600;48.568;7.870;2023-07-13T10:23:56;23.80;94.80
7117;DHT22;3600;48.568;7.870;2023-07-13T10:26:32;24.10;95.40
7117;DHT22;3600;48.568;7.870;2023-07-13T10:29:07;24.30;95.10
7117;DHT22;3600;48.568;7.870;2023-07-13T10:31:40;24.40;95.30
7117;DHT22;3600;48.568;7.870;2023-07-13T10:34:11;24.50;95.20
7117;DHT22;3600;48.568;7.870;2023-07-13T10:36:45;24.70;93.90
7117;DHT22;3600;48.568;7.870;2023-07-13T10:39:21;24.60;95.20
7117;DHT22;3600;48.568;7.870;2023-07-13T10:41:57;24.40;94.60
7117;DHT22;3600;48.568;7.870;2023-07-13T10:44:29;24.90;94.60
7117;DHT22;3600;48.568;7.870;2023-07-13T10:47:00;24.70;92.90
7117;DHT22;3600;48.568;7.870;2023-07-13T10:49:28;24.80;94.10
7117;DHT22;3600;48.568;7.870;2023-07-13T10:51:55;25.00;92.40
7117;DHT22;3600;48.568;7.870;2023-07-13T10:59:39;25.00;92.30
7117;DHT22;3600;48.568;7.870;2023-07-13T11:04:48;24.50;91.50
7117;DHT22;3600;48.568;7.870;2023-07-13T11:07:21;24.80;92.20
7117;DHT22;3600;48.568;7.870;2023-07-13T11:09:53;25.20;94.30
7117;DHT22;3600;48.568;7.870;2023-07-13T11:25:33;25.70;92.80
7117;DHT22;3600;48.568;7.870;2023-07-13T11:31:00;25.60;90.80
7117;DHT22;3600;48.568;7.870;2023-07-13T11:36:13;26.20;91.80
7117;DHT22;3600;48.568;7.870;2023-07-13T11:41:34;26.00;91.50
7117;DHT22;3600;48.568;7.870;2023-07-13T11:44:07;26.20;90.10
7117;DHT22;3600;48.568;7.870;2023-07-13T11:46:34;26.80;91.60
7117;DHT22;3600;48.568;7.870;2023-07-13T11:49:01;26.90;87.80
7117;DHT22;3600;48.568;7.870;2023-07-13T11:51:35;26.20;90.20
7117;DHT22;3600;48.568;7.870;2023-07-13T11:54:12;25.50;88.00
7117;DHT22;3600;48.568;7.870;2023-07-13T11:56:41;25.00;88.30
7117;DHT22;3600;48.568;7.870;2023-07-13T11:59:12;24.90;89.90
7117;DHT22;3600;48.568;7.870;2023-07-13T12:01:46;25.00;90.10
7117;DHT22;3600;48.568;7.870;2023-07-13T12:04:30;24.60;88.20
7117;DHT22;3600;48.568;7.870;2023-07-13T12:07:18;24.60;89.70
7117;DHT22;3600;48.568;7.870;2023-07-13T12:09:46;24.40;88.90
7117;DHT22;3600;48.568;7.870;2023-07-13T12:12:14;24.40;90.60
7117;DHT22;3600;48.568;7.870;2023-07-13T12:14:41;24.30;89.50
7117;DHT22;3600;48.568;7.870;2023-07-13T12:17:28;24.20;89.50
7117;DHT22;3600;48.568;7.870;2023-07-13T12:19:56;24.20;90.10
7117;DHT22;3600;48.568;7.870;2023-07-13T12:22:23;24.30;90.20
7117;DHT22;3600;48.568;7.870;2023-07-13T12:24:51;24.30;90.00
7117;DHT22;3600;48.568;7.870;2023-07-13T12:27:26;24.40;89.20
7117;DHT22;3600;48.568;7.870;2023-07-13T12:30:02;24.30;87.90
7117;DHT22;3600;48.568;7.870;2023-07-13T12:32:32;24.30;88.20
7117;DHT22;3600;48.568;7.870;2023-07-13T12:35:14;24.60;89.70
7117;DHT22;3600;48.568;7.870;2023-07-13T12:37:43;24.50;86.00
7117;DHT22;3600;48.568;7.870;2023-07-13T12:40:14;24.50;84.00
7117;DHT22;3600;48.568;7.870;2023-07-13T12:42:42;24.70;86.00
7117;DHT22;3600;48.568;7.870;2023-07-13T12:45:21;25.40;88.20
7117;DHT22;3600;48.568;7.870;2023-07-13T12:47:50;25.50;85.60
7117;DHT22;3600;48.568;7.870;2023-07-13T12:50:22;25.40;84.50
7117;DHT22;3600;48.568;7.870;2023-07-13T12:52:54;25.40;84.70
7117;DHT22;3600;48.568;7.870;2023-07-13T12:55:22;25.50;86.00
7117;DHT22;3600;48.568;7.870;2023-07-13T12:57:53;25.60;83.20
7117;DHT22;3600;48.568;7.870;2023-07-13T13:00:25;25.80;82.80
7117;DHT22;3600;48.568;7.870;2023-07-13T13:02:55;26.00;84.00
7117;DHT22;3600;48.568;7.870;2023-07-13T13:05:41;26.00;82.40
7117;DHT22;3600;48.568;7.870;2023-07-13T13:08:11;26.60;82.60
7117;DHT22;3600;48.568;7.870;2023-07-13T13:10:38;26.40;80.60
7117;DHT22;3600;48.568;7.870;2023-07-13T13:13:05;26.20;80.60
7117;DHT22;3600;48.568;7.870;2023-07-13T13:15:32;26.60;82.60
7117;DHT22;3600;48.568;7.870;2023-07-13T13:17:59;27.10;78.30
7117;DHT22;3600;48.568;7.870;2023-07-13T13:20:26;26.50;79.90
7117;DHT22;3600;48.568;7.870;2023-07-13T13:22:54;26.20;79.70
7117;DHT22;3600;48.568;7.870;2023-07-13T13:25:22;26.30;81.70
7117;DHT22;3600;48.568;7.870;2023-07-13T13:27:49;27.10;81.90
7117;DHT22;3600;48.568;7.870;2023-07-13T13:30:17;27.10;75.60
7117;DHT22;3600;48.568;7.870;2023-07-13T13:32:46;27.00;83.10
7117;DHT22;3600;48.568;7.870;2023-07-13T13:35:19;26.90;80.70
7117;DHT22;3600;48.568;7.870;2023-07-13T13:37:47;26.20;81.50
7117;DHT22;3600;48.568;7.870;2023-07-13T13:40:19;26.00;78.10
7117;DHT22;3600;48.568;7.870;2023-07-13T13:42:46;25.60;78.20
7117;DHT22;3600;48.568;7.870;2023-07-13T13:45:13;25.60;79.30
7117;DHT22;3600;48.568;7.870;2023-07-13T13:47:41;25.80;80.20
7117;DHT22;3600;48.568;7.870;2023-07-13T13:50:28;25.50;80.40
7117;DHT22;3600;48.568;7.870;2023-07-13T13:52:55;25.50;79.70
7117;DHT22;3600;48.568;7.870;2023-07-13T13:55:22;25.30;81.00
7117;DHT22;3600;48.568;7.870;2023-07-13T13:57:50;25.40;78.00
7117;DHT22;3600;48.568;7.870;2023-07-13T14:00:17;25.30;77.30
7117;DHT22;3600;48.568;7.870;2023-07-13T14:02:46;25.20;78.90
7117;DHT22;3600;48.568;7.870;2023-07-13T14:05:22;25.30;81.00
7117;DHT22;3600;48.568;7.870;2023-07-13T14:07:49;25.30;80.00
7117;DHT22;3600;48.568;7.870;2023-07-13T14:10:18;25.50;79.70
7117;DHT22;3600;48.568;7.870;2023-07-13T14:12:47;25.60;81.50
7117;DHT22;3600;48.568;7.870;2023-07-13T14:15:25;25.30;80.50
7117;DHT22;3600;48.568;7.870;2023-07-13T14:17:53;25.00;81.40
7117;DHT22;3600;48.568;7.870;2023-07-13T14:20:22;25.00;82.20
7117;DHT22;3600;48.568;7.870;2023-07-13T14:22:53;25.20;84.30
7117;DHT22;3600;48.568;7.870;2023-07-13T14:25:21;25.10;81.70
7117;DHT22;3600;48.568;7.870;2023-07-13T14:27:53;25.00;81.50
7117;DHT22;3600;48.568;7.870;2023-07-13T14:30:22;25.00;80.60
7117;DHT22;3600;48.568;7.870;2023-07-13T14:32:49;25.00;80.20
7117;DHT22;3600;48.568;7.870;2023-07-13T14:35:21;25.00;80.80
7117;DHT22;3600;48.568;7.870;2023-07-13T14:37:50;25.20;82.10
7117;DHT22;3600;48.568;7.870;2023-07-13T14:40:25;25.60;83.40
7117;DHT22;3600;48.568;7.870;2023-07-13T14:42:52;25.90;77.50
7117;DHT22;3600;48.568;7.870;2023-07-13T14:45:20;26.10;78.00
7117;DHT22;3600;48.568;7.870;2023-07-13T14:47:47;26.00;76.70
7117;DHT22;3600;48.568;7.870;2023-07-13T14:50:27;26.10;77.30
7117;DHT22;3600;48.568;7.870;2023-07-13T14:52:54;26.30;79.70
7117;DHT22;3600;48.568;7.870;2023-07-13T14:55:21;26.10;79.90
7117;DHT22;3600;48.568;7.870;2023-07-13T14:57:49;26.10;79.40
7117;DHT22;3600;48.568;7.870;2023-07-13T15:00:19;26.20;80.10
7117;DHT22;3600;48.568;7.870;2023-07-13T15:02:53;25.80;78.60
7117;DHT22;3600;48.568;7.870;2023-07-13T15:05:23;25.70;80.90
7117;DHT22;3600;48.568;7.870;2023-07-13T15:07:52;25.70;80.40
7117;DHT22;3600;48.568;7.870;2023-07-13T15:10:24;25.60;79.50
7117;DHT22;3600;48.568;7.870;2023-07-13T15:13:20;25.60;81.70
7117;DHT22;3600;48.568;7.870;2023-07-13T15:15:51;25.80;81.80
7117;DHT22;3600;48.568;7.870;2023-07-13T15:18:23;25.70;78.10
7117;DHT22;3600;48.568;7.870;2023-07-13T15:20:52;26.00;80.40
7117;DHT22;3600;48.568;7.870;2023-07-13T15:23:22;26.00;79.90
7117;DHT22;3600;48.568;7.870;2023-07-13T15:25:49;25.90;77.30
7117;DHT22;3600;48.568;7.870;2023-07-13T15:28:16;26.10;79.30
7117;DHT22;3600;48.568;7.870;2023-07-13T15:30:48;26.50;76.90
7117;DHT22;3600;48.568;7.870;2023-07-13T15:33:23;25.90;75.70
7117;DHT22;3600;48.568;7.870;2023-07-13T15:35:50;25.80;78.20
7117;DHT22;3600;48.568;7.870;2023-07-13T15:38:20;25.60;78.20
7117;DHT22;3600;48.568;7.870;2023-07-13T15:40:48;25.50;81.20
7117;DHT22;3600;48.568;7.870;2023-07-13T15:43:18;25.80;81.00
7117;DHT22;3600;48.568;7.870;2023-07-13T15:45:46;25.90;78.00
7117;DHT22;3600;48.568;7.870;2023-07-13T15:48:19;25.50;78.10
7117;DHT22;3600;48.568;7.870;2023-07-13T15:50:52;25.40;80.60
7117;DHT22;3600;48.568;7.870;2023-07-13T15:53:25;25.40;81.60
7117;DHT22;3600;48.568;7.870;2023-07-13T15:55:53;25.20;80.10
7117;DHT22;3600;48.568;7.870;2023-07-13T15:58:21;25.10;80.20
7117;DHT22;3600;48.568;7.870;2023-07-13T16:00:48;25.20;80.40
7117;DHT22;3600;48.568;7.870;2023-07-13T16:03:19;25.10;80.80
7117;DHT22;3600;48.568;7.870;2023-07-13T16:05:47;25.20;80.60
7117;DHT22;3600;48.568;7.870;2023-07-13T16:08:25;25.00;80.50
7117;DHT22;3600;48.568;7.870;2023-07-13T16:10:53;25.30;82.00
7117;DHT22;3600;48.568;7.870;2023-07-13T16:13:20;25.10;78.20
7117;DHT22;3600;48.568;7.870;2023-07-13T16:15:47;25.00;78.90
7117;DHT22;3600;48.568;7.870;2023-07-13T16:18:15;25.10;78.70
7117;DHT22;3600;48.568;7.870;2023-07-13T16:20:47;25.20;79.50
7117;DHT22;3600;48.568;7.870;2023-07-13T16:23:15;25.30;80.10
7117;DHT22;3600;48.568;7.870;2023-07-13T16:25:43;25.30;79.00
7117;DHT22;3600;48.568;7.870;2023-07-13T16:28:12;25.40;79.50
7117;DHT22;3600;48.568;7.870;2023-07-13T16:30:39;25.40;79.20
7117;DHT22;3600;48.568;7.870;2023-07-13T16:33:06;25.30;78.50
7117;DHT22;3600;48.568;7.870;2023-07-13T16:35:38;25.20;80.90
7117;DHT22;3600;48.568;7.870;2023-07-13T16:40:41;25.30;81.20
7117;DHT22;3600;48.568;7.870;2023-07-13T16:43:11;25.20;81.10
7117;DHT22;3600;48.568;7.870;2023-07-13T16:45:40;25.00;80.50
7117;DHT22;3600;48.568;7.870;2023-07-13T16:48:16;25.10;81.70
7117;DHT22;3600;48.568;7.870;2023-07-13T16:50:44;24.90;79.80
7117;DHT22;3600;48.568;7.870;2023-07-13T16:53:23;24.80;80.20
7117;DHT22;3600;48.568;7.870;2023-07-13T16:55:50;24.90;82.10
7117;DHT22;3600;48.568;7.870;2023-07-13T16:58:17;24.90;82.00
7117;DHT22;3600;48.568;7.870;2023-07-13T17:00:44;25.00;82.30
7117;DHT22;3600;48.568;7.870;2023-07-13T17:03:11;25.00;80.90
7117;DHT22;3600;48.568;7.870;2023-07-13T17:05:42;24.90;82.30